Time,TemperatureF,DewpointF,PressureIn,WindDirection,WindDirectionDegrees,WindSpeedMPH,WindSpeedGustMPH,Humidity,HourlyPrecipIn,Conditions,Clouds,dailyrainin,SoftwareType,DateUTC
2013-04-20 00:01:00,58.7,58.3,29.62,SW,214,6.2,12.6,98,0.00,n/a,n/a,-99.99,Henriksen +1-Wire,2013-04-20 04:01:00,
2013-04-20 00:03:00,58.6,58.3,29.62,SW,214,7.0,12.6,98,0.00,n/a,n/a,-99.99,Henriksen +1-Wire,2013-04-20 04:03:00,
2013-04-20 00:04:00,58.6,58.3,29.62,SW,216,8.1,11.9,98,0.00,n/a,n/a,-99.99,Henriksen +1-Wire,2013-04-20 04:04:00,
2013-04-20 00:06:00,58.6,58.3,29.61,SW,219,6.7,11.9,99,0.00,n/a,n/a,-99.99,Henriksen +1-Wire,2013-04-20 04:06:00,
2013-04-20 00:08:00,58.6,58.3,29.61,SW,219,6.4,11.9,99,0.00,n/a,n/a,-99.99,Henriksen +1-Wire,2013-04-20 04:08:00,
2013-04-20 00:13:00,58.5,58.3,29.61,SW,220,5.4,11.9,99,0.00,n/a,n/a,-99.99,Henriksen +1-Wire,2013-04-20 04:13:00,
2013-04-20 00:18:00,58.3,58.1,29.61,SW,219,5.9,11.1,99,0.00,n/a,n/a,-99.99,Henriksen +1-Wire,2013-04-20 04:18:00,
2013-04-20 00:23:00,58.2,58.1,29.61,SW,224,8.2,12.7,99,0.00,n/a,n/a,-99.99,Henriksen +1-Wire,2013-04-20 04:23:00,
2013-04-20 00:28:00,58.2,58.1,29.61,SW,224,5.8,12.7,99,0.00,n/a,n/a,-99.99,Henriksen +1-Wire,2013-04-20 04:28:00,
2013-04-20 00:34:00,58.2,58.1,29.61,SW,227,5.3,10.5,99,0.00,n/a,n/a,-99.99,Henriksen +1-Wire,2013-04-20 04:34:00,
2013-04-20 00:39:00,58.3,58.2,29.62,SW,223,4.7,10.2,99,0.00,n/a,n/a,-99.99,Henriksen +1-Wire,2013-04-20 04:39:00,
2013-04-20 00:45:00,58.4,58.3,29.62,SSW,213,5.9,11.8,99,0.00,n/a,n/a,-99.99,Henriksen +1-Wire,2013-04-20 04:45:00,
2013-04-20 00:50:00,58.4,58.3,29.62,SSW,208,5.1,9.5,99,0.00,n/a,n/a,-99.99,Henriksen +1-Wire,2013-04-20 04:50:00,
2013-04-20 00:55:00,58.6,58.5,29.61,SW,218,6.1,11.1,99,0.00,n/a,n/a,-99.99,Henriksen +1-Wire,2013-04-20 04:55:00,
2013-04-20 01:01:00,58.6,58.5,29.61,SW,220,6.7,14.9,99,0.00,n/a,n/a,-99.99,Henriksen +1-Wire,2013-04-20 05:01:00,
2013-04-20 01:06:00,58.5,58.5,29.61,SW,218,6.7,14.9,99,0.00,n/a,n/a,-99.99,Henriksen +1-Wire,2013-04-20 05:06:00,
2013-04-20 01:11:00,58.5,58.4,29.61,SW,221,6.5,13.2,99,0.00,n/a,n/a,-99.99,Henriksen +1-Wire,2013-04-20 05:11:00,
2013-04-20 01:16:00,58.5,58.4,29.61,SW,222,6.8,13.2,99,0.01,n/a,n/a,-99.99,Henriksen +1-Wire,2013-04-20 05:16:00,
2013-04-20 01:21:00,58.3,58.3,29.62,SW,222,5.1,11.1,99,0.04,n/a,n/a,-99.99,Henriksen +1-Wire,2013-04-20 05:21:00,
2013-04-20 01:26:00,58.3,58.3,29.62,SW,219,4.7,11.1,99,0.06,n/a,n/a,-99.99,Henriksen +1-Wire,2013-04-20 05:26:00,
2013-04-20 01:31:00,58.2,58.2,29.61,SW,225,3.9,7.3,100,0.08,n/a,n/a,-99.99,Henriksen +1-Wire,2013-04-20 05:31:00,
2013-04-20 01:36:00,58.2,58.2,29.60,SW,228,2.9,7.3,100,0.09,n/a,n/a,-99.99,Henriksen +1-Wire,2013-04-20 05:36:00,
2013-04-20 01:41:00,58.3,58.3,29.60,SSW,192,2.6,5.5,100,0.09,n/a,n/a,-99.99,Henriksen +1-Wire,2013-04-20 05:41:00,
2013-04-20 01:46:00,58.2,58.2,29.60,SSW,200,2.6,4.1,100,0.10,n/a,n/a,-99.99,Henriksen +1-Wire,2013-04-20 05:46:00,
2013-04-20 01:52:00,57.8,57.8,29.60,SSW,209,2.4,4.1,100,0.10,n/a,n/a,-99.99,Henriksen +1-Wire,2013-04-20 05:52:00,
2013-04-20 01:57:00,57.7,57.7,29.60,SSW,206,2.4,4.0,100,0.10,n/a,n/a,-99.99,Henriksen +1-Wire,2013-04-20 05:57:00,
2013-04-20 02:02:00,57.5,57.5,29.59,South,189,3.4,5.5,100,0.11,n/a,n/a,-99.99,Henriksen +1-Wire,2013-04-20 06:02:00,
2013-04-20 02:07:00,57.0,57.0,29.59,South,190,4.6,7.9,100,0.11,n/a,n/a,-99.99,Henriksen +1-Wire,2013-04-20 06:07:00,
2013-04-20 02:12:00,56.3,56.3,29.59,SSW,198,3.5,7.9,100,0.11,n/a,n/a,-99.99,Henriksen +1-Wire,2013-04-20 06:12:00,
2013-04-20 02:18:00,55.3,55.3,29.59,SSW,197,4.0,6.3,100,0.09,n/a,n/a,-99.99,Henriksen +1-Wire,2013-04-20 06:18:00,
2013-04-20 02:23:00,54.8,54.8,29.59,SSW,198,2.7,6.3,100,0.06,n/a,n/a,-99.99,Henriksen +1-Wire,2013-04-20 06:23:00,
2013-04-20 02:28:00,54.8,54.8,29.59,SSW,199,3.2,6.3,100,0.04,n/a,n/a,-99.99,Henriksen +1-Wire,2013-04-20 06:28:00,
2013-04-20 02:34:00,55.3,55.3,29.59,SSW,203,4.3,7.9,100,0.03,n/a,n/a,-99.99,Henriksen +1-Wire,2013-04-20 06:34:00,
2013-04-20 02:39:00,55.8,55.8,29.58,SSW,199,3.2,7.9,100,0.03,n/a,n/a,-99.99,Henriksen +1-Wire,2013-04-20 06:39:00,
2013-04-20 02:45:00,56.0,56.0,29.58,SSW,193,3.2,6.5,100,0.02,n/a,n/a,-99.99,Henriksen +1-Wire,2013-04-20 06:45:00,
2013-04-20 02:50:00,56.0,56.0,29.58,SSW,194,3.2,6.5,100,0.02,n/a,n/a,-99.99,Henriksen +1-Wire,2013-04-20 06:50:00,
2013-04-20 02:56:00,56.6,56.6,29.58,SSW,209,3.7,5.8,100,0.02,n/a,n/a,-99.99,Henriksen +1-Wire,2013-04-20 06:56:00,
2013-04-20 03:01:00,57.7,57.7,29.58,SW,226,5.7,11.0,100,0.01,n/a,n/a,-99.99,Henriksen +1-Wire,2013-04-20 07:01:00,
2013-04-20 03:06:00,58.6,58.6,29.57,SW,225,4.8,11.0,100,0.01,n/a,n/a,-99.99,Henriksen +1-Wire,2013-04-20 07:06:00,
2013-04-20 03:12:00,59.4,59.4,29.57,SW,219,3.6,8.6,100,0.02,n/a,n/a,-99.99,Henriksen +1-Wire,2013-04-20 07:12:00,
2013-04-20 03:17:00,59.7,59.7,29.57,SW,220,3.6,7.1,100,0.02,n/a,n/a,-99.99,Henriksen +1-Wire,2013-04-20 07:17:00,
2013-04-20 03:22:00,59.8,59.8,29.57,SW,225,2.9,7.1,100,0.02,n/a,n/a,-99.99,Henriksen +1-Wire,2013-04-20 07:22:00,
2013-04-20 03:27:00,60.0,60.0,29.57,SW,223,3.1,5.5,100,0.02,n/a,n/a,-99.99,Henriksen +1-Wire,2013-04-20 07:27:00,
2013-04-20 03:33:00,60.2,60.2,29.57,WSW,237,1.9,5.5,100,0.01,n/a,n/a,-99.99,Henriksen +1-Wire,2013-04-20 07:33:00,
2013-04-20 03:39:00,60.2,60.2,29.57,WSW,240,2.4,4.5,100,0.01,n/a,n/a,-99.99,Henriksen +1-Wire,2013-04-20 07:39:00,
2013-04-20 03:45:00,59.4,59.4,29.57,SW,216,1.1,4.0,100,0.01,n/a,n/a,-99.99,Henriksen +1-Wire,2013-04-20 07:45:00,
2013-04-20 03:50:00,58.5,58.5,29.57,NE,45,2.8,4.1,100,0.01,n/a,n/a,-99.99,Henriksen +1-Wire,2013-04-20 07:50:00,
2013-04-20 03:55:00,57.7,57.7,29.58,NE,43,5.9,10.0,100,0.01,n/a,n/a,-99.99,Henriksen +1-Wire,2013-04-20 07:55:00,
2013-04-20 04:00:00,56.7,56.7,29.59,NNW,344,4.4,10.0,100,0.02,n/a,n/a,-99.99,Henriksen +1-Wire,2013-04-20 08:00:00,
2013-04-20 04:05:00,56.3,56.3,29.59,NNW,343,3.0,9.2,100,0.03,n/a,n/a,-99.99,Henriksen +1-Wire,2013-04-20 08:05:00,
2013-04-20 04:10:00,55.7,55.7,29.59,North,3,4.7,9.5,100,0.02,n/a,n/a,-99.99,Henriksen +1-Wire,2013-04-20 08:10:00,
2013-04-20 04:15:00,55.2,55.2,29.60,North,353,4.9,10.2,100,0.02,n/a,n/a,-99.99,Henriksen +1-Wire,2013-04-20 08:15:00,
2013-04-20 04:20:00,54.8,54.7,29.60,NW,323,6.4,13.4,99,0.02,n/a,n/a,-99.99,Henriksen +1-Wire,2013-04-20 08:20:00,
2013-04-20 04:25:00,54.4,54.3,29.61,NW,326,5.8,13.4,99,0.02,n/a,n/a,-99.99,Henriksen +1-Wire,2013-04-20 08:25:00,
2013-04-20 04:30:00,53.7,53.3,29.61,NW,325,6.3,11.7,98,0.02,n/a,n/a,-99.99,Henriksen +1-Wire,2013-04-20 08:30:00,
2013-04-20 04:35:00,53.2,52.5,29.62,NNW,334,6.4,9.5,97,0.03,n/a,n/a,-99.99,Henriksen +1-Wire,2013-04-20 08:35:00,
2013-04-20 04:40:00,52.7,51.8,29.62,North,3,5.7,9.5,96,0.03,n/a,n/a,-99.99,Henriksen +1-Wire,2013-04-20 08:40:00,
2013-04-20 04:45:00,52.5,51.4,29.62,North,349,4.0,9.4,96,0.03,n/a,n/a,-99.99,Henriksen +1-Wire,2013-04-20 08:45:00,
2013-04-20 04:50:00,52.3,51.2,29.62,NNW,327,5.7,10.2,96,0.03,n/a,n/a,-99.99,Henriksen +1-Wire,2013-04-20 08:50:00,
2013-04-20 04:55:00,52.2,51.0,29.62,NNW,335,4.2,10.2,95,0.03,n/a,n/a,-99.99,Henriksen +1-Wire,2013-04-20 08:55:00,
2013-04-20 05:00:00,52.1,50.6,29.62,NNW,339,5.5,9.6,94,0.02,n/a,n/a,-99.99,Henriksen +1-Wire,2013-04-20 09:00:00,
2013-04-20 05:05:00,52.0,50.3,29.62,NNW,339,3.6,8.7,93,0.01,n/a,n/a,-99.99,Henriksen +1-Wire,2013-04-20 09:05:00,
2013-04-20 05:10:00,51.8,50.1,29.61,NNW,336,4.2,7.9,94,0.01,n/a,n/a,-99.99,Henriksen +1-Wire,2013-04-20 09:10:00,
2013-04-20 05:15:00,51.5,50.0,29.61,NNW,330,3.3,6.4,94,0.01,n/a,n/a,-99.99,Henriksen +1-Wire,2013-04-20 09:15:00,
2013-04-20 05:20:00,51.3,50.0,29.61,NNW,328,3.4,7.9,95,0.01,n/a,n/a,-99.99,Henriksen +1-Wire,2013-04-20 09:20:00,
2013-04-20 05:25:00,51.2,50.0,29.61,NW,323,3.7,7.9,95,0.01,n/a,n/a,-99.99,Henriksen +1-Wire,2013-04-20 09:25:00,
2013-04-20 05:30:00,51.1,50.0,29.62,NW,314,3.4,7.9,96,0.02,n/a,n/a,-99.99,Henriksen +1-Wire,2013-04-20 09:30:00,
2013-04-20 05:35:00,50.9,50.0,29.62,NW,315,2.7,7.9,96,0.01,n/a,n/a,-99.99,Henriksen +1-Wire,2013-04-20 09:35:00,
2013-04-20 05:40:00,50.7,50.0,29.63,WNW,298,3.3,7.1,97,0.02,n/a,n/a,-99.99,Henriksen +1-Wire,2013-04-20 09:40:00,
2013-04-20 05:45:00,50.6,50.0,29.64,NW,319,3.6,7.1,97,0.03,n/a,n/a,-99.99,Henriksen +1-Wire,2013-04-20 09:45:00,
2013-04-20 05:51:00,50.3,49.8,29.64,NW,309,2.4,7.1,98,0.04,n/a,n/a,-99.99,Henriksen +1-Wire,2013-04-20 09:51:00,
2013-04-20 05:56:00,50.1,49.7,29.64,NW,316,2.8,6.3,98,0.05,n/a,n/a,-99.99,Henriksen +1-Wire,2013-04-20 09:56:00,
2013-04-20 06:02:00,49.8,49.5,29.64,NW,317,2.6,7.1,98,0.06,n/a,n/a,-99.99,Henriksen +1-Wire,2013-04-20 10:02:00,
2013-04-20 06:07:00,49.6,49.4,29.64,NW,320,2.7,5.6,99,0.07,n/a,n/a,-99.99,Henriksen +1-Wire,2013-04-20 10:07:00,
2013-04-20 06:12:00,49.5,49.3,29.64,NNW,345,3.3,7.9,99,0.08,n/a,n/a,-99.99,Henriksen +1-Wire,2013-04-20 10:12:00,
2013-04-20 06:17:00,49.3,49.2,29.64,NNW,335,1.9,7.9,99,0.09,n/a,n/a,-99.99,Henriksen +1-Wire,2013-04-20 10:17:00,
2013-04-20 06:22:00,49.1,49.0,29.64,NW,315,1.0,6.3,99,0.09,n/a,n/a,-99.99,Henriksen +1-Wire,2013-04-20 10:22:00,
2013-04-20 06:27:00,49.0,49.0,29.64,NW,315,2.9,4.7,99,0.10,n/a,n/a,-99.99,Henriksen +1-Wire,2013-04-20 10:27:00,
2013-04-20 06:32:00,48.9,48.9,29.65,NNW,330,4.2,6.3,99,0.09,n/a,n/a,-99.99,Henriksen +1-Wire,2013-04-20 10:32:00,
2013-04-20 06:38:00,48.8,48.8,29.66,NW,322,4.9,11.8,99,0.09,n/a,n/a,-99.99,Henriksen +1-Wire,2013-04-20 10:38:00,
2013-04-20 06:44:00,48.3,48.1,29.67,NNW,329,6.3,11.8,99,0.08,n/a,n/a,-99.99,Henriksen +1-Wire,2013-04-20 10:44:00,
2013-04-20 06:49:00,47.7,47.3,29.68,NNW,334,5.2,11.8,98,0.07,n/a,n/a,-99.99,Henriksen +1-Wire,2013-04-20 10:49:00,
2013-04-20 06:55:00,47.3,46.5,29.69,NNW,335,4.9,9.8,97,0.07,n/a,n/a,-99.99,Henriksen +1-Wire,2013-04-20 10:55:00,
2013-04-20 07:00:00,46.9,46.1,29.69,NW,324,2.7,8.7,96,0.06,n/a,n/a,-99.99,Henriksen +1-Wire,2013-04-20 11:00:00,
2013-04-20 07:05:00,46.6,46.0,29.69,NNW,330,3.7,7.2,97,0.06,n/a,n/a,-99.99,Henriksen +1-Wire,2013-04-20 11:05:00,
2013-04-20 07:10:00,46.3,45.8,29.69,NNW,330,4.5,10.7,98,0.06,n/a,n/a,-99.99,Henriksen +1-Wire,2013-04-20 11:10:00,
2013-04-20 07:15:00,46.0,45.4,29.69,NNW,334,5.0,10.7,97,0.05,n/a,n/a,-99.99,Henriksen +1-Wire,2013-04-20 11:15:00,
2013-04-20 07:20:00,45.7,45.1,29.70,NNW,332,4.8,10.2,97,0.04,n/a,n/a,-99.99,Henriksen +1-Wire,2013-04-20 11:20:00,
2013-04-20 07:25:00,45.5,44.9,29.70,NNW,329,3.2,10.2,97,0.04,n/a,n/a,-99.99,Henriksen +1-Wire,2013-04-20 11:25:00,
2013-04-20 07:30:00,45.3,44.8,29.70,WNW,298,3.8,7.1,97,0.03,n/a,n/a,-99.99,Henriksen +1-Wire,2013-04-20 11:30:00,
2013-04-20 07:35:00,45.2,44.6,29.70,NW,325,4.3,11.8,97,0.02,n/a,n/a,-99.99,Henriksen +1-Wire,2013-04-20 11:35:00,
2013-04-20 07:40:00,45.1,44.4,29.71,NW,315,5.1,11.8,97,0.03,n/a,n/a,-99.99,Henriksen +1-Wire,2013-04-20 11:40:00,
2013-04-20 07:45:00,45.0,44.3,29.72,NNW,328,4.2,9.4,97,0.04,n/a,n/a,-99.99,Henriksen +1-Wire,2013-04-20 11:45:00,
2013-04-20 07:50:00,44.9,44.3,29.72,NW,321,6.0,11.0,97,0.03,n/a,n/a,-99.99,Henriksen +1-Wire,2013-04-20 11:50:00,
2013-04-20 07:55:00,44.7,44.0,29.73,NW,323,4.5,12.6,97,0.04,n/a,n/a,-99.99,Henriksen +1-Wire,2013-04-20 11:55:00,
2013-04-20 08:00:00,44.6,43.8,29.73,NW,311,4.4,12.6,97,0.04,n/a,n/a,-99.99,Henriksen +1-Wire,2013-04-20 12:00:00,
2013-04-20 08:05:00,44.6,43.7,29.74,NW,326,3.9,11.2,96,0.04,n/a,n/a,-99.99,Henriksen +1-Wire,2013-04-20 12:05:00,
2013-04-20 08:10:00,44.4,43.4,29.74,NNW,327,4.1,11.2,96,0.04,n/a,n/a,-99.99,Henriksen +1-Wire,2013-04-20 12:10:00,
2013-04-20 08:15:00,44.3,43.2,29.74,NNW,327,3.8,8.6,95,0.04,n/a,n/a,-99.99,Henriksen +1-Wire,2013-04-20 12:15:00,
2013-04-20 08:20:00,44.3,43.1,29.74,NNW,347,5.3,9.1,95,0.04,n/a,n/a,-99.99,Henriksen +1-Wire,2013-04-20 12:20:00,
2013-04-20 08:25:00,44.2,42.9,29.74,NNW,335,5.3,9.1,95,0.04,n/a,n/a,-99.99,Henriksen +1-Wire,2013-04-20 12:25:00,
2013-04-20 08:31:00,44.3,42.6,29.74,NNW,331,7.4,13.3,93,0.04,n/a,n/a,-99.99,Henriksen +1-Wire,2013-04-20 12:31:00,
2013-04-20 08:36:00,44.3,42.3,29.74,NNW,328,4.4,13.3,92,0.03,n/a,n/a,-99.99,Henriksen +1-Wire,2013-04-20 12:36:00,
2013-04-20 08:41:00,44.4,42.1,29.74,NNW,330,5.4,9.4,91,0.03,n/a,n/a,-99.99,Henriksen +1-Wire,2013-04-20 12:41:00,
2013-04-20 08:46:00,44.5,41.9,29.74,NW,323,4.4,9.4,90,0.02,n/a,n/a,-99.99,Henriksen +1-Wire,2013-04-20 12:46:00,
2013-04-20 08:51:00,44.7,42.0,29.75,NNW,335,3.6,10.1,90,0.02,n/a,n/a,-99.99,Henriksen +1-Wire,2013-04-20 12:51:00,
2013-04-20 08:56:00,44.8,42.1,29.75,NNW,332,4.2,10.3,89,0.01,n/a,n/a,-99.99,Henriksen +1-Wire,2013-04-20 12:56:00,
2013-04-20 09:01:00,45.0,42.1,29.75,NW,324,4.6,10.3,89,0.01,n/a,n/a,-99.99,Henriksen +1-Wire,2013-04-20 13:01:00,
2013-04-20 09:06:00,45.1,41.9,29.75,NW,322,3.5,11.3,88,0.00,n/a,n/a,-99.99,Henriksen +1-Wire,2013-04-20 13:06:00,
2013-04-20 09:11:00,45.3,41.9,29.75,NNW,333,3.5,11.3,87,0.00,n/a,n/a,-99.99,Henriksen +1-Wire,2013-04-20 13:11:00,
2013-04-20 09:17:00,45.5,41.7,29.75,NW,325,3.4,8.6,86,0.00,n/a,n/a,-99.99,Henriksen +1-Wire,2013-04-20 13:17:00,
2013-04-20 09:22:00,45.7,41.6,29.75,NW,316,4.2,8.2,85,0.00,n/a,n/a,-99.99,Henriksen +1-Wire,2013-04-20 13:22:00,
2013-04-20 09:27:00,45.9,41.7,29.75,NW,324,2.5,6.4,85,0.00,n/a,n/a,-99.99,Henriksen +1-Wire,2013-04-20 13:27:00,
2013-04-20 09:33:00,46.1,41.8,29.75,NNW,328,3.0,8.0,84,0.00,n/a,n/a,-99.99,Henriksen +1-Wire,2013-04-20 13:33:00,
2013-04-20 09:39:00,46.3,42.0,29.75,NNW,336,3.2,7.2,84,0.00,n/a,n/a,-99.99,Henriksen +1-Wire,2013-04-20 13:39:00,
2013-04-20 09:45:00,46.6,42.0,29.75,NW,324,3.7,7.9,84,0.00,n/a,n/a,-99.99,Henriksen +1-Wire,2013-04-20 13:45:00,
2013-04-20 09:50:00,46.8,42.1,29.75,NW,319,3.7,7.9,83,0.00,n/a,n/a,-99.99,Henriksen +1-Wire,2013-04-20 13:50:00,
2013-04-20 09:55:00,47.0,42.5,29.76,NNW,334,2.3,7.9,84,0.00,n/a,n/a,-99.99,Henriksen +1-Wire,2013-04-20 13:55:00,
2013-04-20 10:00:00,47.4,43.0,29.76,NW,307,3.7,6.4,84,0.00,n/a,n/a,-99.99,Henriksen +1-Wire,2013-04-20 14:00:00,
2013-04-20 10:05:00,47.6,43.0,29.75,NW,315,3.2,6.4,83,0.00,n/a,n/a,-99.99,Henriksen +1-Wire,2013-04-20 14:05:00,
2013-04-20 10:10:00,47.8,42.8,29.75,NW,324,3.4,7.5,82,0.00,n/a,n/a,-99.99,Henriksen +1-Wire,2013-04-20 14:10:00,
2013-04-20 10:15:00,47.8,42.6,29.76,NW,322,4.9,7.5,81,0.00,n/a,n/a,-99.99,Henriksen +1-Wire,2013-04-20 14:15:00,
2013-04-20 10:20:00,47.8,42.4,29.76,NW,323,3.1,7.1,81,0.00,n/a,n/a,-99.99,Henriksen +1-Wire,2013-04-20 14:20:00,
2013-04-20 10:25:00,47.9,42.2,29.76,NNW,332,3.9,10.0,80,0.00,n/a,n/a,-99.99,Henriksen +1-Wire,2013-04-20 14:25:00,
2013-04-20 10:30:00,48.0,42.1,29.77,NW,321,4.8,10.0,79,0.00,n/a,n/a,-99.99,Henriksen +1-Wire,2013-04-20 14:30:00,
2013-04-20 10:35:00,48.2,41.9,29.77,NW,320,3.1,8.6,78,0.00,n/a,n/a,-99.99,Henriksen +1-Wire,2013-04-20 14:35:00,
2013-04-20 10:40:00,48.5,42.0,29.78,WNW,284,3.2,7.9,78,0.00,n/a,n/a,-99.99,Henriksen +1-Wire,2013-04-20 14:40:00,
2013-04-20 10:45:00,48.9,42.2,29.78,WNW,303,1.8,6.7,77,0.00,n/a,n/a,-99.99,Henriksen +1-Wire,2013-04-20 14:45:00,
2013-04-20 10:50:00,49.0,42.1,29.79,WNW,293,3.7,7.1,77,0.00,n/a,n/a,-99.99,Henriksen +1-Wire,2013-04-20 14:50:00,
2013-04-20 10:55:00,49.3,42.3,29.79,WNW,301,3.1,7.1,76,0.00,n/a,n/a,-99.99,Henriksen +1-Wire,2013-04-20 14:55:00,
2013-04-20 11:00:00,49.7,42.8,29.79,NNW,334,5.7,9.5,76,0.00,n/a,n/a,-99.99,Henriksen +1-Wire,2013-04-20 15:00:00,
2013-04-20 11:05:00,50.2,42.9,29.79,NW,315,4.6,9.5,75,0.00,n/a,n/a,-99.99,Henriksen +1-Wire,2013-04-20 15:05:00,
2013-04-20 11:10:00,51.2,43.3,29.79,NW,318,4.9,9.9,74,0.00,n/a,n/a,-99.99,Henriksen +1-Wire,2013-04-20 15:10:00,
2013-04-20 11:15:00,51.9,43.1,29.80,NW,317,3.4,9.9,71,0.00,n/a,n/a,-99.99,Henriksen +1-Wire,2013-04-20 15:15:00,
2013-04-20 11:20:00,52.3,43.0,29.80,NW,315,4.8,10.5,70,0.00,n/a,n/a,-99.99,Henriksen +1-Wire,2013-04-20 15:20:00,
2013-04-20 11:25:00,52.6,42.7,29.80,NW,315,3.7,11.1,68,0.00,n/a,n/a,-99.99,Henriksen +1-Wire,2013-04-20 15:25:00,
2013-04-20 11:30:00,52.6,42.3,29.80,NW,322,3.9,11.1,67,0.00,n/a,n/a,-99.99,Henriksen +1-Wire,2013-04-20 15:30:00,
2013-04-20 11:35:00,52.6,42.0,29.80,NW,318,4.4,10.1,66,0.00,n/a,n/a,-99.99,Henriksen +1-Wire,2013-04-20 15:35:00,
2013-04-20 11:40:00,53.4,42.3,29.80,NW,321,5.9,11.8,65,0.00,n/a,n/a,-99.99,Henriksen +1-Wire,2013-04-20 15:40:00,
2013-04-20 11:46:00,53.5,41.7,29.80,NW,320,5.2,11.8,63,0.00,n/a,n/a,-99.99,Henriksen +1-Wire,2013-04-20 15:46:00,
2013-04-20 11:51:00,53.7,41.6,29.80,NW,311,3.3,9.4,63,0.00,n/a,n/a,-99.99,Henriksen +1-Wire,2013-04-20 15:51:00,
2013-04-20 11:57:00,53.6,41.2,29.80,NW,313,7.7,12.6,62,0.00,n/a,n/a,-99.99,Henriksen +1-Wire,2013-04-20 15:57:00,
2013-04-20 12:03:00,53.5,40.7,29.80,NW,323,4.6,12.6,61,0.00,n/a,n/a,-99.99,Henriksen +1-Wire,2013-04-20 16:03:00,
2013-04-20 12:08:00,53.6,40.4,29.80,NNW,328,4.7,11.1,60,0.00,n/a,n/a,-99.99,Henriksen +1-Wire,2013-04-20 16:08:00,
2013-04-20 12:13:00,53.9,40.5,29.80,NNW,330,4.3,11.1,60,0.00,n/a,n/a,-99.99,Henriksen +1-Wire,2013-04-20 16:13:00,
2013-04-20 12:18:00,54.4,40.6,29.80,NW,321,4.4,11.0,59,0.00,n/a,n/a,-99.99,Henriksen +1-Wire,2013-04-20 16:18:00,
2013-04-20 12:23:00,54.6,40.5,29.80,NNW,334,3.4,11.0,58,0.00,n/a,n/a,-99.99,Henriksen +1-Wire,2013-04-20 16:23:00,
2013-04-20 12:28:00,54.7,40.3,29.80,NW,320,3.3,10.8,57,0.00,n/a,n/a,-99.99,Henriksen +1-Wire,2013-04-20 16:28:00,
2013-04-20 12:33:00,54.9,40.2,29.81,WNW,297,4.7,10.8,57,0.00,n/a,n/a,-99.99,Henriksen +1-Wire,2013-04-20 16:33:00,
2013-04-20 12:38:00,54.8,39.6,29.81,WNW,301,4.5,9.4,56,0.00,n/a,n/a,-99.99,Henriksen +1-Wire,2013-04-20 16:38:00,
2013-04-20 12:43:00,54.9,39.4,29.81,NW,312,4.5,10.2,55,0.00,n/a,n/a,-99.99,Henriksen +1-Wire,2013-04-20 16:43:00,
2013-04-20 12:48:00,55.1,39.3,29.81,NW,316,4.3,13.3,55,0.00,n/a,n/a,-99.99,Henriksen +1-Wire,2013-04-20 16:48:00,
2013-04-20 12:54:00,55.1,38.6,29.81,NW,315,5.5,13.3,53,0.00,n/a,n/a,-99.99,Henriksen +1-Wire,2013-04-20 16:54:00,
2013-04-20 12:59:00,55.4,38.7,29.81,WNW,296,3.5,11.3,53,0.00,n/a,n/a,-99.99,Henriksen +1-Wire,2013-04-20 16:59:00,
2013-04-20 13:05:00,55.8,39.0,29.81,NW,305,4.1,9.4,52,0.00,n/a,n/a,-99.99,Henriksen +1-Wire,2013-04-20 17:05:00,
2013-04-20 13:10:00,55.9,38.2,29.81,NNW,337,5.3,12.6,51,0.00,n/a,n/a,-99.99,Henriksen +1-Wire,2013-04-20 17:10:00,
2013-04-20 13:15:00,55.7,37.7,29.81,NW,324,4.8,13.3,50,0.00,n/a,n/a,-99.99,Henriksen +1-Wire,2013-04-20 17:15:00,
2013-04-20 13:21:00,55.7,37.4,29.81,NW,320,5.7,12.6,49,0.00,n/a,n/a,-99.99,Henriksen +1-Wire,2013-04-20 17:21:00,
2013-04-20 13:27:00,55.9,37.2,29.81,NW,321,4.4,11.7,49,0.00,n/a,n/a,-99.99,Henriksen +1-Wire,2013-04-20 17:27:00,
2013-04-20 13:32:00,55.8,36.7,29.82,NW,321,3.9,12.6,48,0.00,n/a,n/a,-99.99,Henriksen +1-Wire,2013-04-20 17:32:00,
2013-04-20 13:38:00,55.8,36.6,29.82,NW,322,4.5,12.6,48,0.00,n/a,n/a,-99.99,Henriksen +1-Wire,2013-04-20 17:38:00,
2013-04-20 13:43:00,55.9,36.7,29.82,NW,324,6.0,11.2,48,0.00,n/a,n/a,-99.99,Henriksen +1-Wire,2013-04-20 17:43:00,
2013-04-20 13:48:00,55.9,36.5,29.82,NW,315,5.1,11.8,47,0.00,n/a,n/a,-99.99,Henriksen +1-Wire,2013-04-20 17:48:00,
2013-04-20 13:53:00,56.1,36.2,29.82,NW,319,6.4,12.6,46,0.00,n/a,n/a,-99.99,Henriksen +1-Wire,2013-04-20 17:53:00,
2013-04-20 13:59:00,56.0,35.7,29.82,NW,318,4.3,14.9,46,0.00,n/a,n/a,-99.99,Henriksen +1-Wire,2013-04-20 17:59:00,
2013-04-20 14:05:00,55.9,35.4,29.82,NW,321,5.7,11.7,45,0.00,n/a,n/a,-99.99,Henriksen +1-Wire,2013-04-20 18:05:00,
2013-04-20 14:10:00,55.8,35.4,29.82,NW,316,5.9,15.6,45,0.00,n/a,n/a,-99.99,Henriksen +1-Wire,2013-04-20 18:10:00,
2013-04-20 14:15:00,55.7,35.4,29.82,NW,318,6.8,15.6,46,0.00,n/a,n/a,-99.99,Henriksen +1-Wire,2013-04-20 18:15:00,
2013-04-20 14:20:00,55.5,34.8,29.82,NNW,332,4.3,15.0,45,0.00,n/a,n/a,-99.99,Henriksen +1-Wire,2013-04-20 18:20:00,
2013-04-20 14:25:00,55.8,35.1,29.82,NW,316,5.8,14.0,45,0.00,n/a,n/a,-99.99,Henriksen +1-Wire,2013-04-20 18:25:00,
2013-04-20 14:31:00,56.2,36.0,29.82,NW,305,5.3,10.9,46,0.00,n/a,n/a,-99.99,Henriksen +1-Wire,2013-04-20 18:31:00,
2013-04-20 14:37:00,56.3,35.8,29.83,NW,311,4.3,11.8,45,0.00,n/a,n/a,-99.99,Henriksen +1-Wire,2013-04-20 18:37:00,
2013-04-20 14:42:00,56.2,35.3,29.83,NW,317,3.8,11.8,45,0.00,n/a,n/a,-99.99,Henriksen +1-Wire,2013-04-20 18:42:00,
2013-04-20 14:47:00,56.5,35.7,29.84,NW,312,2.5,7.8,45,0.00,n/a,n/a,-99.99,Henriksen +1-Wire,2013-04-20 18:47:00,
2013-04-20 14:52:00,56.6,35.7,29.84,NW,313,3.7,8.6,45,0.00,n/a,n/a,-99.99,Henriksen +1-Wire,2013-04-20 18:52:00,
2013-04-20 14:58:00,56.4,35.4,29.84,NW,319,3.4,12.2,44,0.00,n/a,n/a,-99.99,Henriksen +1-Wire,2013-04-20 18:58:00,
2013-04-20 15:03:00,56.0,35.2,29.84,NNW,328,3.7,12.2,45,0.00,n/a,n/a,-99.99,Henriksen +1-Wire,2013-04-20 19:03:00,
2013-04-20 15:08:00,55.9,35.3,29.84,NW,324,2.9,12.0,45,0.00,n/a,n/a,-99.99,Henriksen +1-Wire,2013-04-20 19:08:00,
2013-04-20 15:13:00,55.8,35.3,29.84,NW,322,5.1,12.5,45,0.00,n/a,n/a,-99.99,Henriksen +1-Wire,2013-04-20 19:13:00,
2013-04-20 15:18:00,55.7,35.3,29.84,NW,325,3.7,13.3,45,0.00,n/a,n/a,-99.99,Henriksen +1-Wire,2013-04-20 19:18:00,
2013-04-20 15:23:00,55.8,35.2,29.84,NW,320,5.3,14.0,45,0.00,n/a,n/a,-99.99,Henriksen +1-Wire,2013-04-20 19:23:00,
2013-04-20 15:28:00,55.8,35.0,29.84,NW,320,4.5,14.0,45,0.00,n/a,n/a,-99.99,Henriksen +1-Wire,2013-04-20 19:28:00,
2013-04-20 15:33:00,55.6,35.0,29.84,NW,314,4.2,12.6,45,0.00,n/a,n/a,-99.99,Henriksen +1-Wire,2013-04-20 19:33:00,
2013-04-20 15:38:00,55.9,35.3,29.85,WNW,299,5.4,11.7,45,0.00,n/a,n/a,-99.99,Henriksen +1-Wire,2013-04-20 19:38:00,
2013-04-20 15:43:00,56.3,35.4,29.85,WNW,293,7.4,12.6,45,0.00,n/a,n/a,-99.99,Henriksen +1-Wire,2013-04-20 19:43:00,
2013-04-20 15:49:00,56.2,35.1,29.86,NW,311,4.2,12.6,44,0.00,n/a,n/a,-99.99,Henriksen +1-Wire,2013-04-20 19:49:00,
2013-04-20 15:55:00,55.6,34.9,29.86,NW,322,5.5,12.1,45,0.00,n/a,n/a,-99.99,Henriksen +1-Wire,2013-04-20 19:55:00,
2013-04-20 16:00:00,55.2,34.9,29.86,NNW,339,6.6,12.1,45,0.00,n/a,n/a,-99.99,Henriksen +1-Wire,2013-04-20 20:00:00,
2013-04-20 16:05:00,55.0,34.8,29.87,NNW,332,4.8,11.1,46,0.00,n/a,n/a,-99.99,Henriksen +1-Wire,2013-04-20 20:05:00,
2013-04-20 16:10:00,55.0,34.9,29.87,NW,321,4.4,11.1,46,0.00,n/a,n/a,-99.99,Henriksen +1-Wire,2013-04-20 20:10:00,
2013-04-20 16:15:00,55.0,34.9,29.87,NW,322,4.7,9.5,46,0.00,n/a,n/a,-99.99,Henriksen +1-Wire,2013-04-20 20:15:00,
2013-04-20 16:21:00,55.0,34.7,29.87,WNW,300,6.2,11.8,46,0.00,n/a,n/a,-99.99,Henriksen +1-Wire,2013-04-20 20:21:00,
2013-04-20 16:26:00,55.4,35.1,29.87,NW,314,6.6,16.5,46,0.00,n/a,n/a,-99.99,Henriksen +1-Wire,2013-04-20 20:26:00,
2013-04-20 16:31:00,55.4,35.1,29.88,NW,325,5.6,16.5,45,0.00,n/a,n/a,-99.99,Henriksen +1-Wire,2013-04-20 20:31:00,
2013-04-20 16:36:00,55.1,34.5,29.88,NW,316,3.7,11.7,45,0.00,n/a,n/a,-99.99,Henriksen +1-Wire,2013-04-20 20:36:00,
2013-04-20 16:40:00,55.1,34.2,29.88,NW,320,4.1,11.7,44,0.00,n/a,n/a,-99.99,Henriksen +1-Wire,2013-04-20 20:40:00,
2013-04-20 16:46:00,55.0,33.8,29.88,NW,315,3.8,8.2,44,0.00,n/a,n/a,-99.99,Henriksen +1-Wire,2013-04-20 20:46:00,
2013-04-20 16:51:00,55.1,33.8,29.89,NW,316,3.4,12.6,44,0.00,n/a,n/a,-99.99,Henriksen +1-Wire,2013-04-20 20:51:00,
2013-04-20 16:56:00,55.1,33.8,29.89,NW,316,3.1,12.6,44,0.00,n/a,n/a,-99.99,Henriksen +1-Wire,2013-04-20 20:56:00,
2013-04-20 17:01:00,55.0,33.7,29.89,NW,317,2.9,8.3,44,0.00,n/a,n/a,-99.99,Henriksen +1-Wire,2013-04-20 21:01:00,
2013-04-20 17:06:00,55.0,33.9,29.90,NW,323,3.6,7.1,44,0.00,n/a,n/a,-99.99,Henriksen +1-Wire,2013-04-20 21:06:00,
2013-04-20 17:11:00,55.1,34.2,29.90,NW,312,3.7,9.3,44,0.00,n/a,n/a,-99.99,Henriksen +1-Wire,2013-04-20 21:11:00,
2013-04-20 17:17:00,55.0,34.2,29.90,NW,315,4.2,11.0,44,0.00,n/a,n/a,-99.99,Henriksen +1-Wire,2013-04-20 21:17:00,
2013-04-20 17:22:00,55.1,33.8,29.91,NW,317,3.3,11.0,44,0.00,n/a,n/a,-99.99,Henriksen +1-Wire,2013-04-20 21:22:00,
2013-04-20 17:28:00,55.2,33.5,29.91,NW,311,5.2,13.4,43,0.00,n/a,n/a,-99.99,Henriksen +1-Wire,2013-04-20 21:28:00,
2013-04-20 17:33:00,55.1,33.1,29.91,NW,315,6.3,13.4,42,0.00,n/a,n/a,-99.99,Henriksen +1-Wire,2013-04-20 21:33:00,
2013-04-20 17:39:00,55.3,33.0,29.91,NW,313,3.3,11.9,42,0.00,n/a,n/a,-99.99,Henriksen +1-Wire,2013-04-20 21:39:00,
2013-04-20 17:45:00,55.5,33.3,29.91,NW,310,5.0,11.1,42,0.00,n/a,n/a,-99.99,Henriksen +1-Wire,2013-04-20 21:45:00,
2013-04-20 17:49:00,55.6,33.2,29.91,NNW,348,5.3,14.8,42,0.00,n/a,n/a,-99.99,Henriksen +1-Wire,2013-04-20 21:49:00,
2013-04-20 17:54:00,55.6,32.7,29.92,WNW,300,2.4,14.8,41,0.00,n/a,n/a,-99.99,Henriksen +1-Wire,2013-04-20 21:54:00,
2013-04-20 17:59:00,55.4,32.5,29.92,NW,317,3.9,8.7,41,0.00,n/a,n/a,-99.99,Henriksen +1-Wire,2013-04-20 21:59:00,
2013-04-20 18:05:00,55.1,32.3,29.92,NNW,333,3.3,7.1,41,0.00,n/a,n/a,-99.99,Henriksen +1-Wire,2013-04-20 22:05:00,
2013-04-20 18:10:00,54.8,32.1,29.93,NNW,341,5.4,12.0,41,0.00,n/a,n/a,-99.99,Henriksen +1-Wire,2013-04-20 22:10:00,
2013-04-20 18:15:00,54.5,31.7,29.93,NNW,331,3.8,12.0,41,0.00,n/a,n/a,-99.99,Henriksen +1-Wire,2013-04-20 22:15:00,
2013-04-20 18:20:00,54.4,31.4,29.94,NNW,340,4.9,10.7,41,0.00,n/a,n/a,-99.99,Henriksen +1-Wire,2013-04-20 22:20:00,
2013-04-20 18:24:00,54.2,31.1,29.94,NNW,335,4.2,11.1,40,0.00,n/a,n/a,-99.99,Henriksen +1-Wire,2013-04-20 22:24:00,
2013-04-20 18:30:00,54.1,30.9,29.94,NW,325,2.8,11.1,40,0.00,n/a,n/a,-99.99,Henriksen +1-Wire,2013-04-20 22:30:00,
2013-04-20 18:35:00,54.0,30.9,29.94,NNW,327,5.4,11.7,40,0.00,n/a,n/a,-99.99,Henriksen +1-Wire,2013-04-20 22:35:00,
2013-04-20 18:40:00,53.9,30.8,29.95,NW,319,4.8,11.7,40,0.00,n/a,n/a,-99.99,Henriksen +1-Wire,2013-04-20 22:40:00,
2013-04-20 18:46:00,53.8,30.6,29.95,NNW,338,4.2,10.8,40,0.00,n/a,n/a,-99.99,Henriksen +1-Wire,2013-04-20 22:46:00,
2013-04-20 18:51:00,53.6,30.4,29.95,NNW,339,5.2,8.7,40,0.00,n/a,n/a,-99.99,Henriksen +1-Wire,2013-04-20 22:51:00,
2013-04-20 18:57:00,53.5,30.3,29.96,NNW,332,6.3,11.6,40,0.00,n/a,n/a,-99.99,Henriksen +1-Wire,2013-04-20 22:57:00,
2013-04-20 19:02:00,53.4,30.1,29.96,NW,316,4.6,11.6,40,0.00,n/a,n/a,-99.99,Henriksen +1-Wire,2013-04-20 23:02:00,
2013-04-20 19:07:00,53.2,30.1,29.97,NW,322,5.0,11.1,40,0.00,n/a,n/a,-99.99,Henriksen +1-Wire,2013-04-20 23:07:00,
2013-04-20 19:12:00,52.8,29.9,29.97,NNW,329,4.8,11.1,41,0.00,n/a,n/a,-99.99,Henriksen +1-Wire,2013-04-20 23:12:00,
2013-04-20 19:17:00,52.6,29.8,29.98,NNW,330,5.1,10.9,41,0.00,n/a,n/a,-99.99,Henriksen +1-Wire,2013-04-20 23:17:00,
2013-04-20 19:22:00,52.3,29.7,29.98,NW,326,4.0,10.3,41,0.00,n/a,n/a,-99.99,Henriksen +1-Wire,2013-04-20 23:22:00,
2013-04-20 19:27:00,52.1,29.8,29.98,NW,325,6.9,10.5,41,0.00,n/a,n/a,-99.99,Henriksen +1-Wire,2013-04-20 23:27:00,
2013-04-20 19:32:00,52.0,29.8,29.99,NNW,328,4.3,10.8,42,0.00,n/a,n/a,-99.99,Henriksen +1-Wire,2013-04-20 23:32:00,
2013-04-20 19:37:00,51.7,29.5,29.99,NNW,327,4.8,14.8,42,0.00,n/a,n/a,-99.99,Henriksen +1-Wire,2013-04-20 23:37:00,
2013-04-20 19:42:00,51.6,29.3,29.99,NW,324,6.8,14.8,42,0.00,n/a,n/a,-99.99,Henriksen +1-Wire,2013-04-20 23:42:00,
2013-04-20 19:47:00,51.4,29.3,29.99,NW,322,4.2,12.9,42,0.00,n/a,n/a,-99.99,Henriksen +1-Wire,2013-04-20 23:47:00,
2013-04-20 19:53:00,51.2,29.0,30.00,NNW,334,4.8,11.9,42,0.00,n/a,n/a,-99.99,Henriksen +1-Wire,2013-04-20 23:53:00,
2013-04-20 19:58:00,51.0,28.9,30.01,NW,324,6.5,13.3,42,0.00,n/a,n/a,-99.99,Henriksen +1-Wire,2013-04-20 23:58:00,
2013-04-20 20:03:00,50.9,28.5,30.01,NW,322,5.2,14.2,41,0.00,n/a,n/a,-99.99,Henriksen +1-Wire,2013-04-21 00:03:00,
2013-04-20 20:09:00,50.8,28.3,30.01,NW,321,5.8,10.2,41,0.00,n/a,n/a,-99.99,Henriksen +1-Wire,2013-04-21 00:09:00,
2013-04-20 20:14:00,50.6,28.2,30.02,NW,323,4.7,10.2,41,0.00,n/a,n/a,-99.99,Henriksen +1-Wire,2013-04-21 00:14:00,
2013-04-20 20:19:00,50.4,28.3,30.02,NW,323,3.9,9.0,42,0.00,n/a,n/a,-99.99,Henriksen +1-Wire,2013-04-21 00:19:00,
2013-04-20 20:24:00,50.2,28.5,30.03,NW,320,4.4,10.1,42,0.00,n/a,n/a,-99.99,Henriksen +1-Wire,2013-04-21 00:24:00,
2013-04-20 20:30:00,50.1,28.6,30.03,NNW,328,4.3,10.1,43,0.00,n/a,n/a,-99.99,Henriksen +1-Wire,2013-04-21 00:30:00,
2013-04-20 20:35:00,49.8,28.9,30.04,NNW,328,2.6,7.1,44,0.00,n/a,n/a,-99.99,Henriksen +1-Wire,2013-04-21 00:35:00,
2013-04-20 20:40:00,49.6,28.9,30.04,NW,315,2.5,7.1,44,0.00,n/a,n/a,-99.99,Henriksen +1-Wire,2013-04-21 00:40:00,
2013-04-20 20:45:00,49.4,28.8,30.05,NW,315,4.5,7.1,44,0.00,n/a,n/a,-99.99,Henriksen +1-Wire,2013-04-21 00:45:00,
2013-04-20 20:50:00,49.4,28.9,30.05,NW,322,3.9,10.4,44,0.00,n/a,n/a,-99.99,Henriksen +1-Wire,2013-04-21 00:50:00,
2013-04-20 20:55:00,49.3,28.9,30.05,NW,325,3.8,10.4,44,0.00,n/a,n/a,-99.99,Henriksen +1-Wire,2013-04-21 00:55:00,
2013-04-20 21:00:00,49.2,28.8,30.06,NW,319,3.0,7.9,44,0.00,n/a,n/a,-99.99,Henriksen +1-Wire,2013-04-21 01:00:00,
2013-04-20 21:06:00,49.0,28.7,30.06,NW,326,2.6,7.1,45,0.00,n/a,n/a,-99.99,Henriksen +1-Wire,2013-04-21 01:06:00,
2013-04-20 21:10:00,48.8,28.5,30.07,NW,325,2.5,7.1,44,0.00,n/a,n/a,-99.99,Henriksen +1-Wire,2013-04-21 01:10:00,
2013-04-20 21:15:00,48.6,28.3,30.07,NW,325,2.6,6.3,44,0.00,n/a,n/a,-99.99,Henriksen +1-Wire,2013-04-21 01:15:00,
2013-04-20 21:20:00,48.4,28.2,30.07,NNW,332,3.2,5.5,45,0.00,n/a,n/a,-99.99,Henriksen +1-Wire,2013-04-21 01:20:00,
2013-04-20 21:25:00,48.3,28.2,30.08,NNW,330,4.4,6.3,45,0.00,n/a,n/a,-99.99,Henriksen +1-Wire,2013-04-21 01:25:00,
2013-04-20 21:30:00,48.1,28.1,30.08,NW,325,4.2,10.2,45,0.00,n/a,n/a,-99.99,Henriksen +1-Wire,2013-04-21 01:30:00,
2013-04-20 21:35:00,48.0,28.1,30.09,NNW,327,3.9,10.2,45,0.00,n/a,n/a,-99.99,Henriksen +1-Wire,2013-04-21 01:35:00,
2013-04-20 21:40:00,47.9,28.1,30.09,NW,324,4.9,10.2,45,0.00,n/a,n/a,-99.99,Henriksen +1-Wire,2013-04-21 01:40:00,
2013-04-20 21:45:00,47.8,27.9,30.09,NNW,329,3.5,10.2,45,0.00,n/a,n/a,-99.99,Henriksen +1-Wire,2013-04-21 01:45:00,
2013-04-20 21:50:00,47.6,27.6,30.09,NNW,330,2.9,9.8,45,0.00,n/a,n/a,-99.99,Henriksen +1-Wire,2013-04-21 01:50:00,
2013-04-20 21:55:00,47.4,27.3,30.09,NNW,338,3.7,7.9,45,0.00,n/a,n/a,-99.99,Henriksen +1-Wire,2013-04-21 01:55:00,
2013-04-20 22:00:00,47.2,26.9,30.10,NW,317,3.4,6.5,44,0.00,n/a,n/a,-99.99,Henriksen +1-Wire,2013-04-21 02:00:00,
2013-04-20 22:05:00,47.1,26.5,30.10,NW,318,3.0,10.0,44,0.00,n/a,n/a,-99.99,Henriksen +1-Wire,2013-04-21 02:05:00,
2013-04-20 22:11:00,47.1,26.4,30.10,NNW,333,4.8,11.7,44,0.00,n/a,n/a,-99.99,Henriksen +1-Wire,2013-04-21 02:11:00,
2013-04-20 22:16:00,47.0,26.3,30.11,NNW,331,3.6,11.7,44,0.00,n/a,n/a,-99.99,Henriksen +1-Wire,2013-04-21 02:16:00,
2013-04-20 22:22:00,46.7,26.4,30.11,NNW,341,2.8,9.0,44,0.00,n/a,n/a,-99.99,Henriksen +1-Wire,2013-04-21 02:22:00,
2013-04-20 22:27:00,46.3,26.7,30.11,NNW,338,3.6,7.9,45,0.00,n/a,n/a,-99.99,Henriksen +1-Wire,2013-04-21 02:27:00,
2013-04-20 22:32:00,46.1,26.8,30.12,North,349,2.7,8.6,46,0.00,n/a,n/a,-99.99,Henriksen +1-Wire,2013-04-21 02:32:00,
2013-04-20 22:37:00,46.0,26.6,30.12,NNW,338,6.7,11.1,46,0.00,n/a,n/a,-99.99,Henriksen +1-Wire,2013-04-21 02:37:00,
2013-04-20 22:42:00,45.8,26.4,30.12,NNW,336,8.6,13.4,46,0.00,n/a,n/a,-99.99,Henriksen +1-Wire,2013-04-21 02:42:00,
2013-04-20 22:47:00,45.8,26.1,30.13,NNW,333,6.3,13.4,45,0.00,n/a,n/a,-99.99,Henriksen +1-Wire,2013-04-21 02:47:00,
2013-04-20 22:52:00,45.6,25.7,30.13,NNW,339,4.7,13.3,45,0.00,n/a,n/a,-99.99,Henriksen +1-Wire,2013-04-21 02:52:00,
2013-04-20 22:57:00,45.5,25.5,30.13,NNW,337,6.5,13.3,45,0.00,n/a,n/a,-99.99,Henriksen +1-Wire,2013-04-21 02:57:00,
2013-04-20 23:02:00,45.3,25.2,30.13,NW,326,6.7,13.3,44,0.00,n/a,n/a,-99.99,Henriksen +1-Wire,2013-04-21 03:02:00,
2013-04-20 23:07:00,45.1,25.1,30.13,NNW,329,4.3,12.2,45,0.00,n/a,n/a,-99.99,Henriksen +1-Wire,2013-04-21 03:07:00,
2013-04-20 23:12:00,45.0,25.2,30.13,NNW,342,4.2,10.2,45,0.00,n/a,n/a,-99.99,Henriksen +1-Wire,2013-04-21 03:12:00,
2013-04-20 23:17:00,44.7,25.3,30.13,NNW,331,4.3,10.2,46,0.00,n/a,n/a,-99.99,Henriksen +1-Wire,2013-04-21 03:17:00,
2013-04-20 23:22:00,44.7,25.5,30.14,NNW,336,4.3,10.2,46,0.00,n/a,n/a,-99.99,Henriksen +1-Wire,2013-04-21 03:22:00,
2013-04-20 23:27:00,44.4,25.3,30.14,NNW,338,7.3,11.8,46,0.00,n/a,n/a,-99.99,Henriksen +1-Wire,2013-04-21 03:27:00,
2013-04-20 23:32:00,44.2,25.0,30.14,NNW,333,6.1,11.8,46,0.00,n/a,n/a,-99.99,Henriksen +1-Wire,2013-04-21 03:32:00,
2013-04-20 23:37:00,43.9,24.7,30.14,NNW,333,6.1,11.8,46,0.00,n/a,n/a,-99.99,Henriksen +1-Wire,2013-04-21 03:37:00,
2013-04-20 23:42:00,43.7,24.6,30.15,NNW,339,6.4,16.4,46,0.00,n/a,n/a,-99.99,Henriksen +1-Wire,2013-04-21 03:42:00,
2013-04-20 23:47:00,43.5,24.3,30.15,NNW,331,5.2,16.4,46,0.00,n/a,n/a,-99.99,Henriksen +1-Wire,2013-04-21 03:47:00,
2013-04-20 23:52:00,43.4,24.0,30.15,NNW,331,4.7,14.3,45,0.00,n/a,n/a,-99.99,Henriksen +1-Wire,2013-04-21 03:52:00,
2013-04-20 23:57:00,43.2,23.5,30.15,NW,325,4.3,14.3,45,0.00,n/a,n/a,-99.99,Henriksen +1-Wire,2013-04-21 03:57:00,